Terminal Aerodrome Forecast
Issued by NWS Jackson, MS

Home | Current Version | Previous Version | Text Only | Print | Product List | Glossary On
Versions: 1 2 3 4 5 6 7 8 9 10 11 12 13 14 15 16 17 18
000
FTUS44 KJAN 031800 AAA
TAFMEI
TAF AMD
KMEI 031811Z 0318/0418 18009KT P6SM BKN014 OVC035
     FM040300 19005KT 4SM BR OVC005
     FM040800 20003KT 2SM BR OVC003
     FM041600 20010KT 5SM BR BKN005 OVC010=

USA.gov is the U.S. government's official web portal to all federal, state and local government web resources and services.